Erin, New York
Current Conditions -  °F | °C
As of 10:53 AM on Sunday 21 Dec 2014 (Local Time) from KELM Reporting Station
Overcast Overcast  
Wind Chill: 26°   Ceiling: 2900
Heat Index: 31°   Visibility: 10mi
Dew Point: 23°   Wind: 5mph
Humidity: 72%   Direction: 240°WSW
Pressure: 30.31"   Gusts: NA
Location:  42.19°N, 76.67°W
Report Text: KELM 211553Z 24004KT 10SM OVC029 M01/M05 A3031 RMK AO2 SLP274 T10061050
Loading
Personal Weather Stations






























Interactive Weather Map New forecast layout! Learn more

10-Day Weather Forecast

Advertisements
Track Severe Weather on mobile